Time;durP1;ratioP1;P1;durP2;ratioP2;P2;SDS_P1;SDS_P2;PMS_P1;PMS_P2;Temp;Humidity;BMP_temperature;BMP_pressure;BME280_temperature;BME280_humidity;BME280_pressure;Samples;Min_cycle;Max_cycle;Signal;HPM_P1;HPM_P2
2022/05/11 00:00:14;;;;;;;3.20;1.17;;;;;;;9.58;32.50;99338.16;4998593;28;20034;-62
2022/05/11 00:02:40;;;;;;;2.05;1.08;;;;;;;9.53;32.43;99329.69;5032381;28;20064;-61
2022/05/11 00:05:07;;;;;;;2.45;1.00;;;;;;;9.36;32.91;99312.38;5014847;28;20057;-62
2022/05/11 00:07:32;;;;;;;2.85;1.02;;;;;;;9.54;32.40;99329.56;5032312;28;20112;-61
2022/05/11 00:09:58;;;;;;;2.13;1.17;;;;;;;9.51;32.88;99331.63;5032679;28;20167;-61
2022/05/11 00:12:23;;;;;;;2.03;0.88;;;;;;;9.50;32.63;99330.78;5014907;28;20033;-61
2022/05/11 00:14:49;;;;;;;1.73;1.10;;;;;;;9.50;32.73;99332.59;5032296;28;20028;-60
2022/05/11 00:17:14;;;;;;;3.40;1.10;;;;;;;9.42;32.84;99334.09;5032214;28;20098;-61
2022/05/11 00:19:40;;;;;;;1.70;1.00;;;;;;;9.46;32.80;99324.03;5032365;28;20029;-61
2022/05/11 00:22:05;;;;;;;2.13;1.10;;;;;;;9.42;32.69;99326.09;5032374;28;20116;-61
2022/05/11 00:24:31;;;;;;;1.25;0.90;;;;;;;9.40;33.49;99319.16;5031730;28;20120;-61
2022/05/11 00:26:56;;;;;;;4.47;0.85;;;;;;;9.38;32.93;99318.44;5032176;28;20458;-61
2022/05/11 00:29:22;;;;;;;2.63;1.05;;;;;;;9.31;32.92;99305.63;5014466;28;20461;-61
2022/05/11 00:31:47;;;;;;;3.25;0.90;;;;;;;9.26;33.15;99301.63;5030847;28;20041;-60
2022/05/11 00:34:13;;;;;;;3.17;1.00;;;;;;;9.30;33.01;99322.63;5031627;28;20037;-62
2022/05/11 00:36:39;;;;;;;2.20;0.95;;;;;;;9.23;32.91;99316.09;5014116;28;20116;-60
2022/05/11 00:39:04;;;;;;;4.40;1.00;;;;;;;9.20;33.14;99324.38;5014329;28;20069;-60
2022/05/11 00:41:30;;;;;;;2.10;1.05;;;;;;;9.20;33.37;99324.38;5031799;28;20528;-62
2022/05/11 00:44:01;;;;;;;2.35;1.05;;;;;;;9.22;33.45;99325.09;5031823;28;20036;-61
2022/05/11 00:46:39;;;;;;;2.20;0.90;;;;;;;9.18;33.50;99326.31;5031827;28;20029;-61
2022/05/11 00:49:36;;;;;;;2.88;1.00;;;;;;;9.16;33.35;99317.56;5032136;28;20073;-61
2022/05/11 00:52:15;;;;;;;2.20;1.00;;;;;;;9.16;33.28;99320.25;5031388;28;20034;-59
2022/05/11 00:54:45;;;;;;;2.50;1.20;;;;;;;9.02;33.57;99319.56;5031288;28;20420;-62
2022/05/11 00:57:18;;;;;;;1.42;0.80;;;;;;;9.02;33.69;99318.72;5031676;28;20036;-61
2022/05/11 00:59:48;;;;;;;1.67;1.00;;;;;;;8.94;34.15;99322.03;5031722;28;20112;-61
2022/05/11 01:02:14;;;;;;;3.08;1.15;;;;;;;8.83;33.82;99314.91;5030983;28;20466;-60
2022/05/11 01:04:43;;;;;;;2.00;1.20;;;;;;;8.66;33.65;99289.56;5031123;28;20033;-59
2022/05/11 01:07:11;;;;;;;2.03;1.00;;;;;;;8.71;33.85;99305.22;5013950;28;20087;-60
2022/05/11 01:09:38;;;;;;;5.03;1.50;;;;;;;8.74;33.84;99324.50;5031407;28;20029;-60
2022/05/11 01:12:12;;;;;;;2.38;1.00;;;;;;;8.77;34.14;99323.38;5030956;28;20315;-60
2022/05/11 01:14:41;;;;;;;2.20;1.10;;;;;;;8.72;34.12;99330.94;5031123;28;20083;-60
2022/05/11 01:17:06;;;;;;;2.53;1.02;;;;;;;8.69;33.96;99316.03;5030687;28;20084;-60
2022/05/11 01:19:35;;;;;;;3.20;1.05;;;;;;;8.73;33.85;99325.47;5030757;28;20481;-60
2022/05/11 01:22:07;;;;;;;3.50;1.00;;;;;;;8.79;33.90;99317.94;5031214;28;20057;-59
2022/05/11 01:24:39;;;;;;;3.42;1.08;;;;;;;8.75;33.82;99314.66;5013102;28;20331;-62
2022/05/11 01:27:32;;;;;;;2.40;1.30;;;;;;;8.84;33.41;99318.41;5030991;28;20021;-60
2022/05/11 01:30:05;;;;;;;1.80;0.88;;;;;;;8.76;33.81;99314.56;5030665;28;20041;-60
2022/05/11 01:32:30;;;;;;;4.40;1.25;;;;;;;8.66;33.55;99305.56;5030254;28;20041;-60
2022/05/11 01:35:18;;;;;;;3.72;0.93;;;;;;;8.86;33.46;99313.78;5029173;28;20448;-61
2022/05/11 01:37:59;;;;;;;8.80;1.00;;;;;;;8.81;33.38;99308.84;5030051;28;20033;-61
2022/05/11 01:40:25;;;;;;;4.25;0.98;;;;;;;8.76;33.60;99311.03;5030405;28;20104;-55
2022/05/11 01:42:50;;;;;;;2.58;0.90;;;;;;;8.78;33.87;99318.91;5029965;28;20128;-61
2022/05/11 01:45:16;;;;;;;2.08;1.00;;;;;;;8.70;33.58;99299.03;5012058;28;20388;-61
2022/05/11 01:47:41;;;;;;;3.28;0.80;;;;;;;8.81;33.66;99311.50;5030072;28;20036;-60
2022/05/11 01:50:07;;;;;;;3.88;0.90;;;;;;;8.82;33.40;99315.03;5029892;28;20026;-60
2022/05/11 01:52:33;;;;;;;3.95;1.20;;;;;;;8.85;33.31;99309.44;5030351;28;20116;-60
2022/05/11 01:54:58;;;;;;;1.60;0.75;;;;;;;8.78;33.08;99286.88;5013206;28;20189;-60
2022/05/11 01:57:24;;;;;;;2.55;0.90;;;;;;;8.94;32.93;99306.03;5030382;28;20035;-60
2022/05/11 01:59:50;;;;;;;2.30;1.10;;;;;;;8.94;33.02;99306.03;5029954;28;20136;-61
2022/05/11 02:02:15;;;;;;;2.03;0.80;;;;;;;9.02;33.08;99298.22;5029777;28;20068;-60
2022/05/11 02:10:10;;;;;;;2.83;0.82;;;;;;;9.16;32.68;99290.84;5030303;28;20090;-59
2022/05/11 02:12:36;;;;;;;3.78;0.82;;;;;;;9.22;32.69;99302.88;5030598;28;20116;-60
2022/05/11 02:15:02;;;;;;;3.90;1.13;;;;;;;9.26;32.24;99298.94;5031998;28;20458;-61
2022/05/11 02:17:29;;;;;;;1.95;0.80;;;;;;;9.26;32.32;99283.78;5034470;28;20040;-61
2022/05/11 02:19:54;;;;;;;2.28;0.90;;;;;;;9.37;32.60;99290.03;5034242;28;20033;-61
2022/05/11 02:22:19;;;;;;;1.50;0.77;;;;;;;9.44;32.23;99288.56;5034559;28;20095;-60
2022/05/11 02:24:45;;;;;;;1.92;0.70;;;;;;;9.46;32.07;99287.44;5034396;28;20033;-59
2022/05/11 02:27:11;;;;;;;2.10;0.82;;;;;;;9.54;31.56;99291.31;5034295;28;20033;-61
2022/05/11 02:29:37;;;;;;;2.83;0.88;;;;;;;9.45;32.08;99256.34;5016260;28;20037;-59
2022/05/11 02:32:03;;;;;;;2.08;0.85;;;;;;;9.70;31.50;99291.66;5034239;28;20111;-60
2022/05/11 02:37:12;;;;;;;2.55;0.80;;;;;;;9.86;31.49;99288.53;5034327;28;20169;-62
2022/05/11 02:39:38;;;;;;;1.35;1.00;;;;;;;9.92;31.14;99289.81;5033975;28;20116;-60
2022/05/11 02:42:03;;;;;;;3.92;1.00;;;;;;;10.00;31.08;99283.81;5034387;28;20029;-61
2022/05/11 02:44:29;;;;;;;3.00;0.98;;;;;;;10.07;31.22;99279.63;5034369;28;20029;-61
2022/05/11 02:46:55;;;;;;;2.70;1.00;;;;;;;10.15;31.15;99276.28;5034051;28;20067;-59
2022/05/11 02:49:21;;;;;;;2.80;0.98;;;;;;;10.18;30.39;99282.22;5033683;28;20479;-59
2022/05/11 02:51:46;;;;;;;2.55;1.00;;;;;;;10.29;30.62;99289.28;5033610;28;20029;-61
2022/05/11 02:54:12;;;;;;;2.65;0.95;;;;;;;10.36;30.45;99284.22;5033788;28;20046;-61
2022/05/11 02:56:38;;;;;;;2.58;1.00;;;;;;;10.44;29.89;99279.09;5015876;28;20040;-61
2022/05/11 02:59:04;;;;;;;1.60;0.90;;;;;;;10.53;30.25;99284.59;5033552;28;20442;-61
2022/05/11 03:01:29;;;;;;;3.80;0.88;;;;;;;10.43;29.71;99253.31;5033896;28;20032;-61
2022/05/11 03:03:55;;;;;;;2.45;1.00;;;;;;;10.64;29.97;99281.81;4999544;28;20033;-61
2022/05/11 03:06:20;;;;;;;2.92;0.95;;;;;;;10.75;29.81;99278.19;5033645;28;20084;-61
2022/05/11 03:08:46;;;;;;;1.65;1.00;;;;;;;10.85;30.03;99279.03;5033370;28;20033;-59
2022/05/11 03:11:11;;;;;;;0.98;0.88;;;;;;;10.92;29.83;99284.69;5015546;28;20033;-62
2022/05/11 03:13:37;;;;;;;1.80;1.23;;;;;;;10.97;29.50;99277.06;5033289;28;20087;-62
2022/05/11 03:16:03;;;;;;;2.53;1.30;;;;;;;11.06;29.34;99286.91;5033592;28;20033;-62
2022/05/11 03:18:28;;;;;;;3.72;1.50;;;;;;;11.07;29.38;99277.06;5033148;28;20035;-58
2022/05/11 03:20:58;;;;;;;4.05;1.52;;;;;;;11.27;29.32;99285.94;5033423;28;20065;-60
2022/05/11 03:23:25;;;;;;;4.75;1.52;;;;;;;11.28;28.85;99282.28;5033258;28;20465;-61
2022/05/11 03:25:51;;;;;;;3.67;1.50;;;;;;;11.38;29.11;99289.47;5014641;28;20029;-61
2022/05/11 03:28:17;;;;;;;4.65;1.42;;;;;;;11.49;28.81;99278.59;5033027;28;20056;-61
2022/05/11 03:30:43;;;;;;;2.85;1.25;;;;;;;11.68;28.79;99276.88;5015569;28;20045;-61
2022/05/11 03:35:52;;;;;;;4.60;1.08;;;;;;;11.90;27.94;99278.34;5033230;28;20148;-61
2022/05/11 03:38:18;;;;;;;2.67;1.23;;;;;;;11.95;28.18;99280.59;5032754;28;20132;-62
2022/05/11 03:40:44;;;;;;;3.70;0.98;;;;;;;11.98;28.16;99281.16;5032944;28;20135;-60
2022/05/11 03:43:10;;;;;;;2.05;0.98;;;;;;;11.98;27.80;99280.31;5033206;28;20096;-61
2022/05/11 03:45:36;;;;;;;3.05;1.30;;;;;;;11.96;27.93;99276.94;5032715;28;20040;-61
2022/05/11 03:48:01;;;;;;;4.93;0.88;;;;;;;11.88;28.25;99281.19;5033204;28;20119;-61
2022/05/11 03:50:28;;;;;;;2.80;0.93;;;;;;;11.86;28.22;99277.81;5032392;28;20079;-61
2022/05/11 03:52:55;;;;;;;5.25;0.93;;;;;;;11.87;28.18;99281.31;5015231;28;20104;-60
2022/05/11 03:55:22;;;;;;;1.95;0.75;;;;;;;11.83;28.22;99278.09;5014630;28;20025;-55
2022/05/11 03:57:48;;;;;;;3.25;1.00;;;;;;;11.87;28.43;99276.81;5031660;28;20037;-61
2022/05/11 04:00:20;;;;;;;1.85;1.00;;;;;;;11.89;28.27;99277.53;5033417;28;20456;-58
2022/05/11 04:02:45;;;;;;;3.70;1.10;;;;;;;11.74;28.19;99269.09;5052481;28;20035;-54
2022/05/11 04:05:13;;;;;;;3.53;1.40;;;;;;;11.76;28.54;99282.34;5052601;28;20124;-61
2022/05/11 04:07:39;;;;;;;3.83;1.00;;;;;;;11.72;28.63;99283.63;5039490;28;20036;-57
2022/05/11 04:10:05;;;;;;;2.53;1.20;;;;;;;11.73;28.71;99279.94;5041662;28;20121;-59
2022/05/11 04:12:31;;;;;;;5.35;1.13;;;;;;;11.86;28.53;99276.94;5042392;28;20029;-57
2022/05/11 04:14:57;;;;;;;1.92;1.10;;;;;;;11.96;28.48;99283.16;5039922;28;20032;-60
2022/05/11 04:17:23;;;;;;;1.55;0.93;;;;;;;12.06;28.08;99283.16;5023683;28;20063;-55
2022/05/11 04:19:48;;;;;;;1.35;0.95;;;;;;;12.14;28.09;99275.19;5039125;28;20050;-58
2022/05/11 04:22:14;;;;;;;2.88;1.08;;;;;;;12.10;28.18;99256.84;5041170;28;20094;-58
2022/05/11 04:24:39;;;;;;;2.25;1.15;;;;;;;12.30;28.00;99276.41;5039921;28;20037;-59
2022/05/11 04:27:06;;;;;;;2.80;1.20;;;;;;;12.30;27.92;99282.59;5041417;28;20029;-58
2022/05/11 04:29:31;;;;;;;3.88;0.82;;;;;;;12.26;27.92;99267.81;5041256;28;20039;-58
2022/05/11 04:31:57;;;;;;;1.67;1.10;;;;;;;12.27;27.96;99276.69;5040116;28;20028;-59
2022/05/11 04:34:24;;;;;;;4.75;1.20;;;;;;;12.31;27.87;99278.09;5041542;28;20098;-57
2022/05/11 04:36:50;;;;;;;2.65;1.45;;;;;;;12.36;27.90;99270.44;5039793;28;20101;-59
2022/05/11 04:39:15;;;;;;;5.07;1.05;;;;;;;12.40;27.63;99274.50;5039866;28;20147;-57
2022/05/11 04:41:41;;;;;;;5.97;1.10;;;;;;;12.39;27.63;99258.53;5041750;28;20021;-58
2022/05/11 04:44:07;;;;;;;4.03;1.20;;;;;;;12.38;27.87;99265.75;5039516;28;20075;-59
2022/05/11 04:46:35;;;;;;;4.57;1.23;;;;;;;12.34;28.14;99269.75;5040569;28;20028;-58
2022/05/11 04:49:19;;;;;;;2.50;1.10;;;;;;;12.21;27.60;99240.56;5041965;28;20040;-58
2022/05/11 04:52:07;;;;;;;3.25;1.10;;;;;;;12.61;27.81;99259.97;5040984;28;20437;-63
2022/05/11 04:54:40;;;;;;;8.38;1.05;;;;;;;12.70;27.03;99251.00;5041551;28;20022;-62
2022/05/11 04:57:06;;;;;;;3.78;2.20;;;;;;;12.88;26.93;99252.88;5038314;28;20041;-61
2022/05/11 04:59:32;;;;;;;2.10;1.13;;;;;;;13.04;26.77;99257.56;5040159;28;20071;-61
2022/05/11 05:01:59;;;;;;;2.45;1.40;;;;;;;13.14;26.21;99238.66;5040294;28;20119;-62
2022/05/11 05:04:27;;;;;;;2.47;1.08;;;;;;;13.43;26.05;99232.19;5038927;28;20028;-61
2022/05/11 05:06:53;;;;;;;6.78;1.27;;;;;;;13.46;25.51;99238.09;5040469;28;20074;-61
2022/05/11 05:09:18;;;;;;;4.00;1.48;;;;;;;13.53;25.56;99214.13;5040351;28;20101;-62
2022/05/11 05:11:44;;;;;;;5.97;1.27;;;;;;;13.90;25.49;99239.88;5039045;28;20037;-63
2022/05/11 05:14:11;;;;;;;4.82;1.20;;;;;;;14.25;25.03;99241.75;5040479;28;20025;-61
2022/05/11 05:16:37;;;;;;;2.58;1.25;;;;;;;14.59;24.36;99254.28;5039997;28;20053;-60
2022/05/11 05:19:03;;;;;;;2.90;1.23;;;;;;;14.92;23.92;99240.91;5039141;28;20096;-62
2022/05/11 05:21:29;;;;;;;4.50;1.15;;;;;;;15.33;23.52;99242.81;5023007;28;20029;-61
2022/05/11 05:23:54;;;;;;;1.77;0.90;;;;;;;15.97;22.56;99238.50;5037426;28;20025;-62
2022/05/11 05:26:20;;;;;;;7.95;1.38;;;;;;;16.50;21.66;99244.19;5039119;28;20043;-61
2022/05/11 05:31:31;;;;;;;4.25;1.20;;;;;;;17.61;20.39;99234.94;5031012;28;20034;-61
2022/05/11 05:34:00;;;;;;;6.57;1.13;;;;;;;17.86;20.07;99229.28;5030533;28;20033;-61
2022/05/11 05:36:38;;;;;;;3.42;1.20;;;;;;;18.48;19.89;99229.91;5030338;28;20037;-62
2022/05/11 05:39:05;;;;;;;3.05;1.10;;;;;;;18.87;19.13;99217.00;5030512;28;20551;-61
2022/05/11 05:41:32;;;;;;;2.95;1.20;;;;;;;19.29;18.39;99217.19;5030251;28;20072;-61
2022/05/11 05:43:57;;;;;;;3.33;1.05;;;;;;;19.58;18.09;99194.44;5030195;28;20033;-61
2022/05/11 05:46:24;;;;;;;5.25;1.40;;;;;;;20.07;17.43;99224.44;5030569;28;20033;-61
2022/05/11 05:48:50;;;;;;;3.55;1.10;;;;;;;20.11;17.39;99214.84;5030417;28;20353;-61
2022/05/11 05:51:17;;;;;;;2.90;0.80;;;;;;;20.14;17.31;99222.59;5012711;28;20087;-63
2022/05/11 05:53:44;;;;;;;3.25;1.10;;;;;;;20.06;16.78;99218.16;5030327;28;20124;-61
2022/05/11 05:56:11;;;;;;;2.53;1.10;;;;;;;20.23;17.03;99213.22;5030898;28;20033;-62
2022/05/11 05:58:38;;;;;;;3.10;1.10;;;;;;;20.53;16.75;99216.69;5030612;28;20034;-62
2022/05/11 06:01:04;;;;;;;4.15;1.20;;;;;;;20.92;16.22;99212.41;5030866;28;20034;-63
2022/05/11 06:03:32;;;;;;;2.75;1.05;;;;;;;21.37;16.35;99220.81;5030668;28;20029;-62
2022/05/11 06:05:57;;;;;;;2.50;1.13;;;;;;;21.39;15.78;99204.28;5030688;28;20030;-61
2022/05/11 06:08:23;;;;;;;2.92;1.17;;;;;;;21.40;15.80;99213.28;5030419;28;20037;-61
2022/05/11 06:10:49;;;;;;;3.50;1.00;;;;;;;21.04;15.49;99186.28;5030289;28;20030;-62
2022/05/11 06:13:17;;;;;;;4.10;1.10;;;;;;;21.24;15.95;99207.22;5030452;28;20025;-61
2022/05/11 06:15:43;;;;;;;3.25;0.98;;;;;;;21.18;15.18;99202.59;5030614;28;20030;-61
2022/05/11 06:18:10;;;;;;;5.45;1.10;;;;;;;21.54;15.25;99201.34;5030843;28;20060;-62
2022/05/11 06:20:37;;;;;;;3.33;1.08;;;;;;;22.16;14.50;99209.19;5030339;28;20142;-62
2022/05/11 06:23:03;;;;;;;1.90;0.90;;;;;;;22.41;14.09;99177.63;5049459;28;20036;-62
2022/05/11 06:25:33;;;;;;;5.55;1.23;;;;;;;22.81;14.19;99196.53;5050362;28;20844;-59
2022/05/11 06:27:59;;;;;;;1.65;1.05;;;;;;;22.88;13.77;99205.50;5050585;28;20258;-62
2022/05/11 06:30:27;;;;;;;2.03;1.10;;;;;;;23.48;13.05;99206.94;5050191;28;20044;-63
2022/05/11 06:32:53;;;;;;;3.28;0.85;;;;;;;23.87;13.02;99193.13;5049795;28;20500;-61
2022/05/11 06:35:19;;;;;;;4.88;1.02;;;;;;;24.75;12.32;99187.44;5050143;28;20336;-61
2022/05/11 06:37:44;;;;;;;3.20;1.25;;;;;;;25.63;11.66;99178.66;5050151;28;20029;-62
2022/05/11 06:40:12;;;;;;;3.40;0.95;;;;;;;25.72;11.90;99189.25;5049940;28;20037;-62
2022/05/11 06:42:38;;;;;;;5.70;1.00;;;;;;;25.51;11.57;99189.63;5050235;28;20175;-62
2022/05/11 06:45:05;;;;;;;1.75;1.25;;;;;;;25.67;11.86;99186.41;5050146;28;20116;-61
2022/05/11 06:47:34;;;;;;;3.05;1.20;;;;;;;25.32;11.45;99188.03;5050068;28;20032;-61
2022/05/11 06:50:00;;;;;;;3.33;1.50;;;;;;;24.91;12.09;99176.91;5037319;28;20052;-63
2022/05/11 06:52:26;;;;;;;3.08;1.05;;;;;;;25.46;11.61;99172.19;5048473;28;20036;-59
2022/05/11 07:00:23;;;;;;;7.07;1.15;;;;;;;29.83;8.46;99165.38;5048967;28;20036;-60
2022/05/11 07:02:48;;;;;;;5.35;0.95;;;;;;;30.30;7.91;99160.06;5052872;28;20037;-56
2022/05/11 07:05:14;;;;;;;3.75;1.38;;;;;;;31.11;8.05;99159.66;5047336;28;20186;-57
2022/05/11 07:07:40;;;;;;;3.60;1.25;;;;;;;31.76;7.52;99165.44;5047351;28;20057;-58
2022/05/11 07:10:07;;;;;;;4.18;1.10;;;;;;;32.36;7.23;99166.59;5041051;28;20389;-59
2022/05/11 07:12:35;;;;;;;3.22;1.00;;;;;;;32.79;6.65;99163.28;5046113;28;20033;-64
2022/05/11 07:15:05;;;;;;;3.25;1.20;;;;;;;33.39;5.94;99175.28;5047409;28;20864;-57
2022/05/11 07:17:39;;;;;;;2.50;1.10;;;;;;;34.40;5.92;99165.28;5053042;28;20461;-61
2022/05/11 07:20:09;;;;;;;5.40;1.30;;;;;;;34.59;5.84;99156.16;5047571;28;20116;-61
2022/05/11 07:22:35;;;;;;;6.35;1.10;;;;;;;34.95;5.65;99158.34;5015565;28;20033;-60
2022/05/11 07:25:00;;;;;;;3.20;1.20;;;;;;;34.93;5.24;99155.88;5019484;28;20178;-60
2022/05/11 07:27:26;;;;;;;2.15;0.85;;;;;;;34.27;5.30;99155.72;5027468;28;20042;-61
2022/05/11 07:29:53;;;;;;;6.20;1.40;;;;;;;33.91;5.97;99158.94;5032845;28;20038;-63
2022/05/11 07:32:20;;;;;;;2.92;1.05;;;;;;;33.25;5.94;99156.53;5048610;28;20041;-61
2022/05/11 07:34:45;;;;;;;3.38;1.00;;;;;;;32.01;6.56;99144.31;5052462;28;20469;-61
2022/05/11 07:37:11;;;;;;;2.60;1.00;;;;;;;31.63;6.56;99150.22;5048253;28;20051;-60
2022/05/11 07:39:37;;;;;;;3.90;1.25;;;;;;;31.46;6.94;99144.16;5050248;28;20037;-56
2022/05/11 07:42:03;;;;;;;2.38;0.90;;;;;;;31.18;6.75;99151.94;5033921;28;20036;-58
2022/05/11 07:44:28;;;;;;;3.20;1.30;;;;;;;31.14;6.97;99146.09;5032519;28;20037;-59
2022/05/11 07:46:54;;;;;;;3.53;1.25;;;;;;;31.18;6.73;99149.16;5035018;28;20129;-60
2022/05/11 07:49:20;;;;;;;3.25;1.00;;;;;;;31.18;6.91;99144.44;5050438;28;20053;-61
2022/05/11 07:51:46;;;;;;;4.38;1.27;;;;;;;31.13;6.82;99141.69;5035121;28;20381;-55
2022/05/11 07:54:13;;;;;;;4.20;1.20;;;;;;;31.16;6.91;99140.31;5033651;28;20044;-56
2022/05/11 08:02:08;;;;;;;4.13;1.40;;;;;;;32.55;6.53;99127.13;5032634;28;20477;-61
2022/05/11 08:04:35;;;;;;;1.58;0.95;;;;;;;32.38;6.06;99114.50;5037086;28;20083;-59
2022/05/11 08:07:00;;;;;;;1.52;1.10;;;;;;;32.26;6.77;99127.84;5038979;28;20040;-60
2022/05/11 08:09:26;;;;;;;2.17;1.25;;;;;;;32.27;6.74;99123.94;5050589;28;20029;-60
2022/05/11 08:11:52;;;;;;;3.28;1.75;;;;;;;31.80;6.97;99121.41;5040652;28;20435;-66
2022/05/11 08:14:18;;;;;;;4.05;1.25;;;;;;;30.42;8.09;99127.53;5051728;28;20049;-62
2022/05/11 08:16:44;;;;;;;2.20;1.30;;;;;;;29.22;8.76;99125.28;5041181;28;20033;-61
2022/05/11 08:19:10;;;;;;;2.22;1.30;;;;;;;28.26;9.27;99130.44;5039085;28;20495;-61
2022/05/11 08:21:36;;;;;;;3.75;1.42;;;;;;;27.02;9.82;99111.13;5041936;28;20033;-61
2022/05/11 08:24:02;;;;;;;1.70;1.45;;;;;;;26.07;10.82;99111.59;5036880;28;20025;-59
2022/05/11 08:26:28;;;;;;;3.47;1.60;;;;;;;25.12;11.46;99114.44;5049958;28;20039;-63
2022/05/11 08:28:53;;;;;;;6.10;1.35;;;;;;;24.44;12.27;99118.19;5032114;28;20045;-61
2022/05/11 08:34:04;;;;;;;4.80;1.30;;;;;;;23.56;12.75;99085.63;5033045;28;20025;-59
2022/05/11 08:36:29;;;;;;;2.97;1.35;;;;;;;23.21;13.36;99100.66;5017607;28;20028;-61
2022/05/11 08:38:58;;;;;;;4.70;1.33;;;;;;;23.00;13.62;99109.25;5052301;28;20362;-56
2022/05/11 08:41:48;;;;;;;3.10;1.45;;;;;;;23.15;13.14;99097.97;5051329;28;20025;-58
2022/05/11 08:44:17;;;;;;;3.13;1.40;;;;;;;22.80;13.42;99100.16;5035191;28;20033;-59
2022/05/11 08:47:03;;;;;;;3.35;1.55;;;;;;;22.76;13.38;99104.41;5052118;28;20033;-60
2022/05/11 08:49:50;;;;;;;2.25;1.58;;;;;;;22.56;13.49;99109.16;5036611;28;20075;-60
2022/05/11 08:52:40;;;;;;;2.63;1.20;;;;;;;22.32;13.79;99103.41;5051775;28;20044;-62
2022/05/11 08:55:05;;;;;;;2.90;1.40;;;;;;;21.96;14.17;99100.25;5050744;28;20029;-61
2022/05/11 08:57:32;;;;;;;2.92;1.50;;;;;;;21.91;14.21;99109.06;5033744;28;20110;-63
2022/05/11 09:00:14;;;;;;;2.30;1.63;;;;;;;22.08;14.48;99108.56;5033561;28;20053;-62
2022/05/11 09:03:02;;;;;;;3.13;1.35;;;;;;;21.94;14.25;99097.75;5035665;28;20445;-55
2022/05/11 09:05:30;;;;;;;3.17;1.38;;;;;;;21.46;14.62;99059.94;5050829;28;20114;-56
2022/05/11 09:07:57;;;;;;;2.25;1.35;;;;;;;21.64;14.59;99092.81;5045326;28;20059;-57
2022/05/11 09:10:24;;;;;;;3.53;1.45;;;;;;;21.53;15.09;99090.72;5031152;28;20127;-59
2022/05/11 09:12:59;;;;;;;4.85;1.50;;;;;;;21.26;14.80;99077.19;5038123;28;20052;-59
2022/05/11 09:15:53;;;;;;;3.08;1.35;;;;;;;21.56;14.85;99105.78;5051568;28;20484;-58
2022/05/11 09:18:36;;;;;;;2.70;1.17;;;;;;;21.54;15.00;99106.03;5048153;28;20087;-63
2022/05/11 09:21:32;;;;;;;2.83;1.10;;;;;;;21.68;14.65;99109.56;5043165;28;20151;-61
2022/05/11 09:24:03;;;;;;;;;;;;;;;22.09;14.42;99104.78;5038861;28;20397;-61
2022/05/11 09:26:32;;;;;;;3.42;1.20;;;;;;;21.34;15.07;99104.16;5031148;28;20505;-62
2022/05/11 09:29:19;;;;;;;1.83;1.17;;;;;;;21.15;15.38;99105.03;5042421;28;20433;-58
2022/05/11 09:31:46;;;;;;;2.88;1.42;;;;;;;20.91;15.25;99112.78;5031003;28;20044;-60
2022/05/11 09:34:23;;;;;;;4.53;1.30;;;;;;;20.97;15.14;99102.97;5042411;28;20036;-57
2022/05/11 09:37:01;;;;;;;8.73;3.63;;;;;;;21.10;14.90;99080.34;5049277;28;20033;-60
2022/05/11 09:39:28;;;;;;;2.00;1.30;;;;;;;21.14;15.03;99103.34;5042284;28;20032;-60
2022/05/11 09:41:57;;;;;;;3.72;1.50;;;;;;;21.19;15.27;99098.97;5038911;28;20028;-61
2022/05/11 09:44:37;;;;;;;2.85;1.20;;;;;;;21.13;14.98;99094.38;5049845;28;20341;-60
2022/05/11 09:47:23;;;;;;;3.08;1.17;;;;;;;21.35;15.43;99097.69;5031355;28;20048;-61
2022/05/11 09:49:48;;;;;;;4.60;1.52;;;;;;;21.07;15.41;99098.75;5049341;28;20041;-59
2022/05/11 09:52:29;;;;;;;1.30;1.10;;;;;;;21.17;15.30;99111.09;5044406;28;20037;-60
2022/05/11 09:54:54;;;;;;;2.03;1.27;;;;;;;20.85;15.63;99100.03;5049784;28;20110;-62
2022/05/11 09:57:27;;;;;;;2.55;1.40;;;;;;;20.90;15.78;99113.84;5044325;28;20073;-59
2022/05/11 09:59:56;;;;;;;2.05;1.25;;;;;;;20.62;15.50;99080.34;5029812;28;20037;-59
2022/05/11 10:02:25;;;;;;;5.60;1.20;;;;;;;20.91;15.94;99104.63;5030862;28;20037;-58
2022/05/11 10:05:08;;;;;;;2.53;1.35;;;;;;;20.98;15.60;99105.47;5044806;28;20116;-61
2022/05/11 10:07:44;;;;;;;2.80;1.45;;;;;;;20.58;15.83;99089.09;5012755;28;20087;-62
2022/05/11 10:10:12;;;;;;;3.75;1.27;;;;;;;20.48;16.27;99112.09;5030370;28;20034;-62
2022/05/11 10:12:41;;;;;;;1.85;1.30;;;;;;;20.22;16.06;99097.38;5030205;28;20381;-61
2022/05/11 10:24:17;;;;;;;3.30;1.23;;;;;;;20.49;16.28;99102.88;5048816;28;20036;-59
2022/05/11 10:26:55;;;;;;;3.97;1.40;;;;;;;20.46;16.51;99103.28;5028892;28;20049;-56
2022/05/11 10:29:47;;;;;;;1.98;1.40;;;;;;;20.46;16.52;99105.19;5032184;28;20053;-60
2022/05/11 10:32:38;;;;;;;3.50;1.70;;;;;;;20.49;16.55;99099.34;5049743;28;20049;-61
2022/05/11 10:35:23;;;;;;;1.85;1.40;;;;;;;20.85;16.35;99097.31;5050318;28;20511;-58
2022/05/11 10:38:06;;;;;;;4.20;1.65;;;;;;;20.98;16.29;99099.19;5044665;28;20044;-63
2022/05/11 10:40:56;;;;;;;2.95;1.30;;;;;;;21.10;16.49;99092.06;5034062;28;20072;-58
2022/05/11 10:43:43;;;;;;;2.72;1.50;;;;;;;21.42;16.13;99089.50;5033691;28;20033;-60
2022/05/11 10:46:37;;;;;;;5.65;1.67;;;;;;;21.84;15.95;99082.91;5033681;28;20535;-57
2022/05/11 10:49:17;;;;;;;4.82;1.63;;;;;;;21.81;16.32;99092.34;5031670;28;20049;-57
2022/05/11 10:52:17;;;;;;;2.10;1.30;;;;;;;21.89;16.82;99083.91;5044209;28;20047;-62
2022/05/11 10:55:01;;;;;;;3.88;1.88;;;;;;;21.79;16.76;99083.53;5052448;28;20106;-61
2022/05/11 10:57:39;;;;;;;2.50;1.45;;;;;;;21.99;16.45;99071.72;5053982;28;20353;-61
2022/05/11 11:00:13;;;;;;;3.08;1.50;;;;;;;21.98;16.55;99081.78;5053640;28;20020;-59
2022/05/11 11:03:04;;;;;;;4.50;1.55;;;;;;;22.04;16.51;99075.44;5033377;28;20105;-61
2022/05/11 11:05:38;;;;;;;3.55;1.50;;;;;;;21.91;16.54;99068.19;5033357;28;20033;-61
2022/05/11 11:08:37;;;;;;;3.63;1.48;;;;;;;21.97;16.39;99068.38;5033684;28;20099;-59
2022/05/11 11:11:05;;;;;;;3.22;1.60;;;;;;;21.78;16.34;99055.44;5033749;28;20029;-58
2022/05/11 11:14:00;;;;;;;3.00;1.73;;;;;;;21.91;16.43;99060.00;5033635;28;20030;-60
2022/05/11 11:16:35;;;;;;;2.20;1.20;;;;;;;21.71;16.79;99051.09;5030961;28;20040;-58
2022/05/11 11:19:03;;;;;;;3.72;1.48;;;;;;;21.57;17.03;99048.38;5044491;28;20433;-60
2022/05/11 11:21:29;;;;;;;6.40;1.90;;;;;;;21.46;17.17;99051.75;5046233;28;20037;-61
2022/05/11 11:24:22;;;;;;;2.72;1.50;;;;;;;21.57;17.05;99045.66;5033110;28;20030;-61
2022/05/11 11:26:53;;;;;;;2.95;1.58;;;;;;;21.32;17.29;99050.97;5016050;28;20041;-61
2022/05/11 11:29:22;;;;;;;3.35;1.35;;;;;;;21.03;17.38;99043.09;5032823;28;20061;-60
2022/05/11 11:31:56;;;;;;;3.10;1.30;;;;;;;20.92;17.76;99046.44;5020777;28;20041;-60
2022/05/11 11:34:25;;;;;;;1.27;1.17;;;;;;;20.72;17.61;99036.38;5033507;28;20187;-59
2022/05/11 11:36:52;;;;;;;3.67;1.17;;;;;;;20.82;17.57;99040.59;5046881;28;20040;-61
2022/05/11 11:39:45;;;;;;;2.92;1.60;;;;;;;20.93;17.51;99035.34;5050811;28;20470;-60
2022/05/11 11:42:11;;;;;;;4.85;1.60;;;;;;;20.81;17.69;99028.03;5052551;28;20032;-60
2022/05/11 11:44:43;;;;;;;4.28;1.80;;;;;;;20.93;17.75;99029.06;5053074;28;20029;-59
2022/05/11 11:47:27;;;;;;;3.00;1.40;;;;;;;21.17;17.54;99018.56;5051805;28;20503;-61
2022/05/11 11:49:57;;;;;;;1.65;1.20;;;;;;;21.19;17.25;99014.59;5053126;28;20041;-61
2022/05/11 11:52:43;;;;;;;5.03;1.40;;;;;;;21.27;17.03;99015.38;5051958;28;20029;-59
2022/05/11 11:55:32;;;;;;;3.55;1.45;;;;;;;21.19;16.91;99020.03;5052419;28;20048;-59
2022/05/11 11:58:14;;;;;;;3.80;1.50;;;;;;;21.06;16.93;99017.31;5052296;28;20056;-62
2022/05/11 12:01:03;;;;;;;2.65;1.70;;;;;;;21.15;16.99;99017.94;5034244;28;20021;-64
2022/05/11 12:03:33;;;;;;;2.13;1.45;;;;;;;21.03;16.94;99020.47;5052654;28;20032;-63
2022/05/11 12:15:01;;;;;;;3.13;1.40;;;;;;;20.95;16.96;99007.91;5052359;28;20107;-62
2022/05/11 12:17:05;;;;;;;3.20;1.60;;;;;;;21.15;16.82;99009.78;5032277;28;20362;-61
2022/05/11 12:19:34;;;;;;;2.50;1.30;;;;;;;21.10;16.70;98999.53;5015779;28;20394;-62
2022/05/11 12:22:17;;;;;;;5.22;1.73;;;;;;;21.24;17.03;99003.06;5036210;28;20384;-61
2022/05/11 12:24:56;;;;;;;4.57;1.60;;;;;;;21.14;16.74;98997.22;5052233;28;20063;-59
2022/05/11 12:27:31;;;;;;;3.83;1.70;;;;;;;20.83;16.86;98971.53;5037516;28;20092;-61
2022/05/11 12:30:04;;;;;;;;;;;;;;;21.25;16.66;99002.00;5031439;28;20577;-61
2022/05/11 12:32:38;;;;;;;4.82;1.85;;;;;;;20.96;17.34;99001.44;5031097;28;19920;-60
2022/05/11 12:35:10;;;;;;;5.40;1.50;;;;;;;20.75;17.27;98987.03;5030656;28;20068;-61